Terminal Aerodrome Forecast
Issued by NWS

Home | Current Version | Previous Version | Text Only | Print | Product List | Glossary On
Versions: 1 2 3 4 5 6 7 8 9 10 11 12 13 14 15 16 17 18 19 20 21 22 23 24 25 26 27 28 29 30 31 32 33 34 35 36
505
FTAK31 PAFA 242338
TAFAQT
TAF
PAQT 242338Z 2500/2524 36012G18KT 2SM -SN BR BKN012 BKN025 OVC045
     FM250300 36012KT 2SM -SN BR BKN008 OVC025
     FM250600 33008KT 2SM -SN BR BKN008 BKN015 OVC025
     FM250900 33008KT 6SM -SN BR BKN015 BKN025 OVC035
     FM251200 30008KT P6SM VCSH SCT015 BKN025 OVC035=

USA.gov is the U.S. government's official web portal to all federal, state and local government web resources and services.